Time;durP1;ratioP1;P1;durP2;ratioP2;P2;SDS_P1;SDS_P2;PMS_P1;PMS_P2;Temp;Humidity;BMP_temperature;BMP_pressure;BME280_temperature;BME280_humidity;BME280_pressure;Samples;Min_cycle;Max_cycle;Signal;HPM_P1;HPM_P2
2023/01/13 00:00:59;;;;;;;118.60;64.00;;;;;;;2.33;100.00;97919.95;106482;1254;59802;-78
2023/01/13 00:03:25;;;;;;;120.50;70.30;;;;;;;2.31;100.00;97920.18;106644;1254;60823;-77
2023/01/13 00:05:51;;;;;;;121.20;65.60;;;;;;;2.29;100.00;97917.33;106663;1254;59838;-78
2023/01/13 00:08:18;;;;;;;111.00;63.00;;;;;;;2.27;100.00;97916.09;106644;1254;61358;-78
2023/01/13 00:10:47;;;;;;;115.60;64.70;;;;;;;2.18;100.00;97913.75;106643;1254;60785;-78
2023/01/13 00:13:14;;;;;;;126.50;67.30;;;;;;;2.14;100.00;97912.18;106680;1251;71410;-77
2023/01/13 00:15:40;;;;;;;108.90;61.60;;;;;;;2.12;100.00;97910.30;106609;1252;62101;-77
2023/01/13 00:18:06;;;;;;;128.00;70.90;;;;;;;2.10;100.00;97907.83;106666;1256;59775;-78
2023/01/13 00:20:33;;;;;;;115.90;61.90;;;;;;;2.11;100.00;97906.00;106532;1257;60067;-77
2023/01/13 00:23:00;;;;;;;177.00;74.80;;;;;;;2.09;100.00;97907.31;106648;1255;60841;-78
2023/01/13 00:25:26;;;;;;;271.00;103.90;;;;;;;2.07;100.00;97907.32;106633;1254;72910;-78
2023/01/13 00:27:53;;;;;;;197.50;81.40;;;;;;;2.04;100.00;97900.34;106659;1254;61979;-77
2023/01/13 00:30:19;;;;;;;143.80;70.60;;;;;;;2.03;100.00;97895.64;106436;1253;61028;-77
2023/01/13 00:32:45;;;;;;;242.90;97.00;;;;;;;2.04;100.00;97889.85;106630;1254;59986;-79
2023/01/13 00:35:12;;;;;;;118.60;58.60;;;;;;;2.07;100.00;97889.56;106633;1254;61924;-79
2023/01/13 00:37:39;;;;;;;112.40;55.60;;;;;;;2.09;100.00;97892.88;106617;1254;61330;-79
2023/01/13 00:40:07;;;;;;;109.40;53.70;;;;;;;2.13;100.00;97898.04;106638;1254;61224;-77
2023/01/13 00:45:19;;;;;;;121.20;56.20;;;;;;;2.20;100.00;97891.64;106547;1253;74493;-77
2023/01/13 00:47:45;;;;;;;115.30;56.20;;;;;;;2.23;100.00;97893.77;106635;1254;59814;-79
2023/01/13 00:50:11;;;;;;;95.60;49.00;;;;;;;2.30;100.00;97890.78;106535;1254;61869;-79
2023/01/13 00:52:38;;;;;;;111.30;51.00;;;;;;;2.37;100.00;97889.52;106506;1254;61311;-79
2023/01/13 00:55:05;;;;;;;112.10;54.50;;;;;;;2.43;100.00;97892.71;106532;1253;62003;-77
2023/01/13 00:57:31;;;;;;;118.20;58.90;;;;;;;2.48;100.00;97892.88;106471;1256;59889;-79
2023/01/13 00:59:57;;;;;;;112.00;55.00;;;;;;;2.52;100.00;97894.38;106489;1254;60931;-79
2023/01/13 01:02:24;;;;;;;60.00;32.40;;;;;;;2.60;100.00;97891.45;106480;1254;61337;-79
2023/01/13 01:04:50;;;;;;;75.40;38.10;;;;;;;2.78;100.00;97887.86;106505;1256;62074;-79
2023/01/13 01:07:17;;;;;;;62.30;30.80;;;;;;;2.88;100.00;97887.39;106482;1256;61993;-77
2023/01/13 01:09:43;;;;;;;59.00;31.10;;;;;;;2.97;100.00;97883.27;106482;1256;59913;-79
2023/01/13 01:12:10;;;;;;;36.30;18.10;;;;;;;3.08;100.00;97878.52;106497;1254;60743;-77
2023/01/13 01:14:36;;;;;;;24.00;11.90;;;;;;;3.28;100.00;97876.30;106477;1255;60106;-79
2023/01/13 01:17:03;;;;;;;29.00;14.90;;;;;;;3.52;100.00;97874.02;106470;1256;61213;-79
2023/01/13 01:19:29;;;;;;;39.20;21.50;;;;;;;3.75;100.00;97867.71;106488;1257;60801;-77
2023/01/13 01:21:55;;;;;;;30.20;19.30;;;;;;;3.87;100.00;97866.38;106509;1254;60031;-77
2023/01/13 01:24:22;;;;;;;29.40;17.30;;;;;;;3.95;100.00;97862.67;106501;1256;61315;-77
2023/01/13 01:26:48;;;;;;;23.60;13.40;;;;;;;4.06;100.00;97862.16;106438;1255;60734;-79
2023/01/13 01:29:15;;;;;;;24.40;12.50;;;;;;;4.13;100.00;97862.02;106454;1254;61460;-77
2023/01/13 01:31:41;;;;;;;23.10;13.90;;;;;;;4.20;100.00;97854.42;106460;1254;59856;-77
2023/01/13 01:34:08;;;;;;;21.70;12.20;;;;;;;4.28;100.00;97850.04;106464;1255;59947;-79
2023/01/13 01:36:35;;;;;;;19.20;10.40;;;;;;;4.34;100.00;97843.54;106440;1256;61315;-77
2023/01/13 01:39:02;;;;;;;21.20;11.70;;;;;;;4.42;100.00;97838.88;106494;1255;62057;-79
2023/01/13 01:41:30;;;;;;;27.40;14.10;;;;;;;4.44;100.00;97838.12;106442;1255;61353;-79
2023/01/13 01:44:01;;;;;;;29.80;14.30;;;;;;;4.44;100.00;97842.84;106557;1254;62044;-79
2023/01/13 01:46:41;;;;;;;25.10;12.70;;;;;;;4.41;100.00;97845.75;106589;1254;74568;-77
2023/01/13 01:49:21;;;;;;;10.20;6.30;;;;;;;4.41;100.00;97845.58;106569;1254;69824;-79
2023/01/13 01:51:51;;;;;;;11.00;5.60;;;;;;;4.61;100.00;97845.41;106639;1254;71440;-79
2023/01/13 01:54:26;;;;;;;6.50;3.70;;;;;;;4.80;100.00;97848.27;106708;1254;59882;-79
2023/01/13 01:56:52;;;;;;;12.20;6.60;;;;;;;4.98;100.00;97840.91;106572;1254;61241;-77
2023/01/13 01:59:18;;;;;;;16.20;8.00;;;;;;;5.14;100.00;97830.38;106651;1254;61372;-80
2023/01/13 02:01:45;;;;;;;10.80;6.50;;;;;;;5.20;100.00;97827.70;106641;1254;59905;-80
2023/01/13 02:04:14;;;;;;;11.60;6.00;;;;;;;5.26;100.00;97827.89;106525;1254;59969;-79
2023/01/13 02:06:41;;;;;;;9.30;5.70;;;;;;;5.32;100.00;97824.75;106600;1254;61362;-79
2023/01/13 02:09:07;;;;;;;9.80;5.30;;;;;;;5.34;100.00;97818.90;106673;1255;61571;-79
2023/01/13 02:14:21;;;;;;;7.20;4.70;;;;;;;5.42;100.00;97809.96;106678;1254;71066;-77
2023/01/13 02:16:53;;;;;;;13.50;7.90;;;;;;;5.39;100.00;97809.25;106748;1252;72566;-77
2023/01/13 02:19:41;;;;;;;7.80;4.50;;;;;;;5.38;100.00;97809.11;106688;1254;59843;-79
2023/01/13 02:22:56;;;;;;;9.40;5.70;;;;;;;5.42;100.00;97805.19;106675;1253;60822;-79
2023/01/13 02:25:54;;;;;;;7.90;5.20;;;;;;;5.33;100.00;97796.54;106645;1255;74601;-79
2023/01/13 02:28:27;;;;;;;8.70;6.30;;;;;;;5.25;100.00;97797.52;106628;1253;69768;-79
2023/01/13 02:34:09;;;;;;;14.50;9.90;;;;;;;5.03;100.00;97800.52;106579;1259;60671;-77
2023/01/13 02:36:46;;;;;;;26.40;13.90;;;;;;;4.91;100.00;97796.77;106645;1254;61319;-79
2023/01/13 02:39:23;;;;;;;20.20;14.60;;;;;;;4.81;100.00;97800.30;106534;1253;74612;-78
2023/01/13 02:44:47;;;;;;;29.10;20.60;;;;;;;4.62;100.00;97806.14;106640;1252;72847;-78
2023/01/13 02:47:21;;;;;;;24.70;16.30;;;;;;;4.55;100.00;97798.52;106530;1257;59824;-77
2023/01/13 02:49:52;;;;;;;23.40;15.10;;;;;;;4.39;100.00;97796.45;106647;1254;59988;-77
2023/01/13 02:52:25;;;;;;;18.30;9.00;;;;;;;4.29;100.00;97794.42;106488;1254;74538;-79
2023/01/13 02:54:54;;;;;;;27.30;14.20;;;;;;;4.21;100.00;97792.43;106678;1255;70599;-77
2023/01/13 02:57:20;;;;;;;19.70;12.80;;;;;;;4.17;100.00;97789.95;106519;1253;72577;-77
2023/01/13 02:59:47;;;;;;;25.20;16.20;;;;;;;4.12;100.00;97793.14;106501;1254;59883;-79
2023/01/13 03:02:15;;;;;;;25.90;13.90;;;;;;;4.04;100.00;97791.02;106574;1254;61487;-79
2023/01/13 03:04:46;;;;;;;19.10;13.70;;;;;;;4.00;100.00;97792.45;106667;1254;74602;-78
2023/01/13 03:07:17;;;;;;;18.80;11.80;;;;;;;3.93;100.00;97789.71;106653;1254;71162;-77
2023/01/13 03:09:48;;;;;;;14.00;8.50;;;;;;;3.88;100.00;97789.67;106662;1254;72585;-78
2023/01/13 03:12:27;;;;;;;17.50;11.50;;;;;;;3.78;100.00;97792.84;106580;1253;60865;-77
2023/01/13 03:14:56;;;;;;;15.60;11.20;;;;;;;3.77;100.00;97790.73;106768;1253;61340;-77
2023/01/13 03:17:41;;;;;;;12.90;7.20;;;;;;;3.75;100.00;97788.45;106497;1254;73577;-77
2023/01/13 03:20:16;;;;;;;9.50;4.90;;;;;;;3.73;100.00;97790.05;106532;1254;69944;-78
2023/01/13 03:22:59;;;;;;;7.30;4.50;;;;;;;3.68;100.00;97780.33;106599;1256;72560;-79
2023/01/13 03:25:35;;;;;;;8.00;5.40;;;;;;;3.61;100.00;97779.83;106595;1254;61345;-77
2023/01/13 03:28:03;;;;;;;11.80;6.10;;;;;;;3.58;100.00;97776.05;106661;1256;61141;-79
2023/01/13 03:30:39;;;;;;;10.40;5.60;;;;;;;3.53;100.00;97774.86;106698;1254;74616;-79
2023/01/13 03:33:22;;;;;;;41.40;22.30;;;;;;;3.55;100.00;97774.14;106671;1254;71066;-77
2023/01/13 03:35:54;;;;;;;39.10;23.70;;;;;;;3.57;100.00;97767.74;106481;1254;71327;-79
2023/01/13 03:38:22;;;;;;;35.30;22.20;;;;;;;3.52;100.00;97768.36;106432;1251;61301;-77
2023/01/13 03:41:00;;;;;;;33.10;20.80;;;;;;;3.49;100.00;97767.80;106662;1254;60663;-77
2023/01/13 03:46:32;;;;;;;33.60;18.50;;;;;;;3.50;100.00;97766.81;106601;1256;70180;-77
2023/01/13 03:48:58;;;;;;;29.00;17.40;;;;;;;3.48;100.00;97758.19;106579;1254;70470;-79
2023/01/13 03:51:26;;;;;;;23.20;16.50;;;;;;;3.45;100.00;97761.96;106662;1254;59879;-79
2023/01/13 03:53:58;;;;;;;24.60;15.20;;;;;;;3.46;100.00;97761.61;106494;1254;61261;-79
2023/01/13 03:56:28;;;;;;;27.70;17.70;;;;;;;3.46;100.00;97760.91;106553;1254;73374;-77
2023/01/13 03:58:55;;;;;;;27.70;16.50;;;;;;;3.47;100.00;97761.51;106677;1255;71370;-77
2023/01/13 04:01:53;;;;;;;34.20;21.80;;;;;;;3.46;100.00;97759.77;106525;1254;61393;-78
2023/01/13 04:04:23;;;;;;;34.50;22.10;;;;;;;3.44;100.00;97764.99;106532;1254;61234;-77
2023/01/13 04:06:54;;;;;;;35.70;21.50;;;;;;;3.44;100.00;97764.08;106705;1256;61924;-79
2023/01/13 04:09:51;;;;;;;54.50;29.90;;;;;;;3.40;100.00;97755.38;106563;1254;73449;-76
2023/01/13 04:12:59;;;;;;;45.50;25.40;;;;;;;3.39;100.00;97768.23;106546;1254;69539;-79
2023/01/13 04:15:37;;;;;;;37.80;21.00;;;;;;;3.43;100.00;97769.00;106593;1256;72576;-77
2023/01/13 04:18:13;;;;;;;42.60;27.00;;;;;;;3.44;100.00;97765.21;106506;1254;61234;-79
2023/01/13 04:20:40;;;;;;;23.30;14.50;;;;;;;3.42;100.00;97772.20;106490;1253;59999;-77
2023/01/13 04:23:07;;;;;;;26.80;15.70;;;;;;;3.43;100.00;97764.23;106419;1256;75681;-79
2023/01/13 04:25:33;;;;;;;22.80;14.80;;;;;;;3.46;100.00;97767.17;106518;1256;59708;-77
2023/01/13 04:28:00;;;;;;;26.60;19.80;;;;;;;3.50;100.00;97773.02;106516;1253;60818;-79
2023/01/13 04:30:26;;;;;;;31.00;23.00;;;;;;;3.51;100.00;97773.20;106499;1253;61430;-77
2023/01/13 04:32:52;;;;;;;34.30;23.60;;;;;;;3.53;100.00;97778.45;106520;1254;61314;-79
2023/01/13 04:35:19;;;;;;;39.60;27.10;;;;;;;3.52;100.00;97770.45;106462;1253;61643;-77
2023/01/13 04:37:45;;;;;;;35.80;25.60;;;;;;;3.52;100.00;97768.25;106505;1256;60814;-77
2023/01/13 04:40:12;;;;;;;29.30;19.50;;;;;;;3.50;100.00;97759.48;106511;1253;61235;-77
2023/01/13 04:42:38;;;;;;;32.50;23.30;;;;;;;3.47;100.00;97756.69;106451;1256;61215;-77
2023/01/13 04:45:06;;;;;;;35.60;21.10;;;;;;;3.45;100.00;97755.33;106520;1257;62167;-79
2023/01/13 04:47:32;;;;;;;20.90;13.80;;;;;;;3.45;100.00;97761.16;106469;1252;73454;-76
2023/01/13 04:49:58;;;;;;;30.10;16.10;;;;;;;3.37;100.00;97765.88;106545;1252;61999;-77
2023/01/13 04:52:25;;;;;;;39.60;24.90;;;;;;;3.38;100.00;97773.56;106480;1254;59869;-79
2023/01/13 04:54:51;;;;;;;36.90;25.90;;;;;;;3.34;100.00;97768.98;106658;1254;61376;-78
2023/01/13 04:57:17;;;;;;;44.20;26.80;;;;;;;3.33;100.00;97768.83;106569;1254;62107;-78
2023/01/13 04:59:44;;;;;;;38.90;26.20;;;;;;;3.32;100.00;97768.09;106636;1255;59869;-77
2023/01/13 05:02:18;;;;;;;42.50;29.70;;;;;;;3.28;100.00;97771.39;106615;1255;59540;-77
2023/01/13 05:04:46;;;;;;;61.80;39.10;;;;;;;3.28;100.00;97772.89;106629;1254;72583;-79
2023/01/13 05:07:13;;;;;;;76.20;50.50;;;;;;;3.27;100.00;97771.16;106438;1257;59927;-79
2023/01/13 05:09:39;;;;;;;58.10;35.60;;;;;;;3.25;100.00;97771.18;106619;1255;62012;-77
2023/01/13 05:17:36;;;;;;;85.00;40.80;;;;;;;3.10;100.00;97774.10;106570;1257;73641;-77
2023/01/13 05:20:03;;;;;;;79.20;37.10;;;;;;;3.12;100.00;97773.87;106581;1257;61012;-78
2023/01/13 05:25:21;;;;;;;63.70;35.10;;;;;;;3.11;100.00;97777.65;106623;1254;75038;-78
2023/01/13 05:27:48;;;;;;;52.20;33.10;;;;;;;3.16;100.00;97779.92;106430;1254;71492;-78
2023/01/13 05:30:15;;;;;;;57.20;35.70;;;;;;;3.19;100.00;97779.46;106567;1257;72526;-79
2023/01/13 05:32:41;;;;;;;44.90;29.40;;;;;;;3.22;100.00;97771.27;106572;1251;62132;-77
2023/01/13 05:35:08;;;;;;;49.20;30.00;;;;;;;3.24;100.00;97769.37;106590;1254;59791;-78
2023/01/13 05:37:35;;;;;;;54.20;32.90;;;;;;;3.26;100.00;97769.02;106588;1256;59795;-76
2023/01/13 05:45:31;;;;;;;44.60;28.00;;;;;;;3.28;100.00;97778.63;106482;1257;59948;-77
2023/01/13 05:47:58;;;;;;;56.60;34.10;;;;;;;3.28;100.00;97775.73;106513;1254;61418;-79
2023/01/13 05:50:24;;;;;;;39.80;22.20;;;;;;;3.26;100.00;97782.41;106433;1259;61330;-77
2023/01/13 05:52:51;;;;;;;53.20;29.40;;;;;;;3.26;100.00;97777.41;106477;1256;62129;-77
2023/01/13 05:55:17;;;;;;;45.70;25.70;;;;;;;3.24;100.00;97778.17;106476;1257;59945;-79
2023/01/13 05:57:43;;;;;;;52.70;28.30;;;;;;;3.21;100.00;97782.38;106513;1257;61333;-79
2023/01/13 06:00:10;;;;;;;42.70;26.90;;;;;;;3.19;100.00;97778.23;106582;1254;61326;-79
2023/01/13 06:02:37;;;;;;;37.10;21.70;;;;;;;3.15;100.00;97771.52;106533;1254;61986;-79
2023/01/13 06:05:03;;;;;;;31.20;19.50;;;;;;;3.09;100.00;97765.66;106684;1256;60802;-78
2023/01/13 06:07:30;;;;;;;45.50;23.70;;;;;;;3.08;100.00;97769.46;106609;1257;61351;-77
2023/01/13 06:09:56;;;;;;;40.90;22.70;;;;;;;3.07;100.00;97769.32;106613;1256;60822;-77
2023/01/13 06:12:23;;;;;;;74.80;42.90;;;;;;;3.07;100.00;97773.92;106608;1254;59895;-77
2023/01/13 06:14:49;;;;;;;85.90;55.50;;;;;;;3.07;100.00;97776.39;106631;1254;59998;-78
2023/01/13 06:17:15;;;;;;;92.20;57.00;;;;;;;3.07;100.00;97777.02;106626;1254;61345;-79
2023/01/13 06:19:42;;;;;;;95.00;58.30;;;;;;;3.07;100.00;97778.99;106528;1256;61247;-77
2023/01/13 06:22:31;;;;;;;95.40;60.10;;;;;;;3.05;100.00;97783.04;106561;1255;59870;-79
2023/01/13 06:24:58;;;;;;;81.60;48.50;;;;;;;3.00;100.00;97772.87;106617;1257;61228;-79
2023/01/13 06:27:24;;;;;;;86.90;50.00;;;;;;;2.99;100.00;97775.86;106594;1257;61231;-79
2023/01/13 06:29:51;;;;;;;97.00;54.10;;;;;;;2.97;100.00;97778.91;106715;1256;62115;-79
2023/01/13 06:32:26;;;;;;;104.60;56.70;;;;;;;3.00;100.00;97781.17;106672;1257;59870;-79
2023/01/13 06:34:57;;;;;;;99.90;53.30;;;;;;;2.99;100.00;97780.23;106480;1252;59771;-79
2023/01/13 06:37:24;;;;;;;92.00;54.90;;;;;;;3.00;100.00;97785.08;106683;1256;60823;-79
2023/01/13 06:39:52;;;;;;;105.20;56.60;;;;;;;2.99;100.00;97786.83;106832;1257;76350;-79
2023/01/13 06:45:04;;;;;;;89.30;50.50;;;;;;;3.01;100.00;97779.02;106635;1254;71950;-77
2023/01/13 06:47:31;;;;;;;90.70;49.50;;;;;;;3.03;100.00;97776.52;106607;1252;61240;-79
2023/01/13 06:49:58;;;;;;;107.40;58.80;;;;;;;3.02;100.00;97775.92;106579;1254;61129;-79
2023/01/13 06:52:29;;;;;;;136.70;70.60;;;;;;;3.02;100.00;97783.47;106729;1256;73277;-79
2023/01/13 06:54:56;;;;;;;126.60;68.00;;;;;;;3.04;100.00;97785.16;106673;1256;70937;-79
2023/01/13 06:57:23;;;;;;;152.00;78.80;;;;;;;3.03;100.00;97787.61;106605;1256;72539;-77
2023/01/13 06:59:49;;;;;;;132.20;71.90;;;;;;;3.03;100.00;97797.20;106687;1252;60793;-78
2023/01/13 07:02:16;;;;;;;139.60;71.10;;;;;;;3.06;100.00;97798.16;106571;1255;126074;-77
2023/01/13 07:04:43;;;;;;;124.80;65.80;;;;;;;3.07;100.00;97797.64;106632;1254;61211;-78
2023/01/13 07:07:11;;;;;;;122.90;63.10;;;;;;;3.10;100.00;97799.21;106670;1254;70854;-79
2023/01/13 07:09:38;;;;;;;132.60;60.40;;;;;;;3.10;100.00;97797.55;106624;1254;71386;-79
2023/01/13 07:12:05;;;;;;;119.20;62.80;;;;;;;3.13;100.00;97798.98;106668;1256;61232;-78
2023/01/13 07:17:23;;;;;;;135.80;72.50;;;;;;;3.19;100.00;97798.47;107708;1255;73698;-79
2023/01/13 07:19:51;;;;;;;148.20;75.20;;;;;;;3.21;100.00;97804.77;107376;1254;71039;-77
2023/01/13 07:22:17;;;;;;;79.90;41.80;;;;;;;3.23;100.00;97799.46;107333;1256;71843;-77
2023/01/13 07:24:43;;;;;;;54.60;30.20;;;;;;;3.23;100.00;97796.93;107000;1257;60891;-79
2023/01/13 07:27:10;;;;;;;54.80;28.30;;;;;;;3.21;100.00;97790.32;108610;1254;59241;-79
2023/01/13 07:29:36;;;;;;;60.40;38.00;;;;;;;3.22;100.00;97787.33;107560;1254;59780;-77
2023/01/13 07:32:04;;;;;;;65.40;39.40;;;;;;;3.25;100.00;97791.41;106950;1257;59818;-80
2023/01/13 07:34:30;;;;;;;69.40;42.50;;;;;;;3.29;100.00;97790.20;106986;1256;72510;-77
2023/01/13 07:36:57;;;;;;;103.90;67.90;;;;;;;3.34;100.00;97791.66;108075;1256;59832;-77
2023/01/13 07:39:23;;;;;;;74.90;47.20;;;;;;;3.42;100.00;97796.36;109115;1254;59156;-79
2023/01/13 07:44:35;;;;;;;77.30;46.10;;;;;;;3.52;100.00;97795.33;108767;1256;71717;-79
2023/01/13 07:47:01;;;;;;;89.90;53.70;;;;;;;3.54;100.00;97784.27;108403;1252;60098;-77
2023/01/13 07:49:28;;;;;;;68.00;44.40;;;;;;;3.58;100.00;97786.80;107392;1255;59867;-79
2023/01/13 07:51:54;;;;;;;55.00;32.60;;;;;;;3.51;100.00;97787.05;107082;1254;61870;-77
2023/01/13 07:54:21;;;;;;;48.20;30.70;;;;;;;3.53;100.00;97783.55;106868;1254;74538;-79
2023/01/13 07:56:48;;;;;;;63.40;40.40;;;;;;;3.56;100.00;97789.81;108452;1254;62114;-79
2023/01/13 07:59:15;;;;;;;76.60;41.80;;;;;;;3.62;100.00;97793.19;108231;1254;61909;-77
2023/01/13 08:01:41;;;;;;;68.50;44.10;;;;;;;3.71;100.00;97797.64;107016;1257;61182;-77
2023/01/13 08:04:07;;;;;;;73.10;45.40;;;;;;;3.76;100.00;97800.03;106886;1254;60008;-77
2023/01/13 08:06:35;;;;;;;61.60;39.20;;;;;;;3.82;100.00;97799.59;106967;1254;60713;-77
2023/01/13 08:09:01;;;;;;;76.20;46.90;;;;;;;3.90;100.00;97790.94;107505;1253;71443;-77
2023/01/13 08:11:28;;;;;;;62.20;40.80;;;;;;;3.89;100.00;97777.79;106789;1254;61790;-77
2023/01/13 08:13:56;;;;;;;48.30;31.70;;;;;;;3.95;100.00;97781.22;106971;1257;61877;-77
2023/01/13 08:16:23;;;;;;;45.30;30.50;;;;;;;4.03;100.00;97780.29;108122;1257;61422;-79
2023/01/13 08:18:49;;;;;;;50.10;31.80;;;;;;;4.08;100.00;97770.60;107248;1252;74546;-80
2023/01/13 08:21:16;;;;;;;59.20;33.30;;;;;;;4.14;100.00;97773.38;109397;1256;58997;-80
2023/01/13 08:23:43;;;;;;;59.50;33.20;;;;;;;4.17;100.00;97775.79;109258;1254;59292;-80
2023/01/13 08:26:14;;;;;;;53.40;34.80;;;;;;;4.25;100.00;97775.31;109338;1253;59136;-80
2023/01/13 08:28:42;;;;;;;43.50;25.80;;;;;;;4.33;100.00;97772.37;109377;1254;60185;-79
2023/01/13 08:31:13;;;;;;;38.90;21.40;;;;;;;4.39;100.00;97769.48;108288;1256;74540;-77
2023/01/13 08:33:39;;;;;;;41.20;23.90;;;;;;;4.43;100.00;97769.08;107589;1255;70045;-77
2023/01/13 08:36:07;;;;;;;147.50;72.20;;;;;;;4.47;100.00;97766.75;108302;1254;72607;-77
2023/01/13 08:38:34;;;;;;;193.00;102.70;;;;;;;4.55;100.00;97764.88;108118;1254;61480;-77
2023/01/13 08:41:01;;;;;;;156.10;80.50;;;;;;;4.61;100.00;97770.90;107477;1256;60626;-80
2023/01/13 08:43:27;;;;;;;196.80;106.10;;;;;;;4.66;100.00;97772.70;107054;1254;73957;-77
2023/01/13 08:45:58;;;;;;;190.90;100.60;;;;;;;4.71;100.00;97766.60;107788;1254;61140;-79
2023/01/13 08:48:25;;;;;;;182.30;99.60;;;;;;;4.76;100.00;97773.38;107660;1254;71418;-80
2023/01/13 08:50:52;;;;;;;200.20;105.20;;;;;;;4.84;100.00;97773.21;107132;1254;60806;-78
2023/01/13 08:53:19;;;;;;;200.50;114.20;;;;;;;4.91;100.00;97773.89;107132;1254;60585;-77
2023/01/13 08:55:46;;;;;;;184.30;104.50;;;;;;;5.01;100.00;97775.73;108050;1254;74208;-79
2023/01/13 08:58:12;;;;;;;175.50;95.60;;;;;;;5.12;100.00;97769.15;107254;1253;71227;-79
2023/01/13 09:00:39;;;;;;;157.90;85.80;;;;;;;5.24;100.00;97771.61;107314;1254;61653;-80
2023/01/13 09:03:05;;;;;;;135.90;75.60;;;;;;;5.36;100.00;97770.77;107022;1254;61860;-77
2023/01/13 09:05:32;;;;;;;91.20;51.30;;;;;;;5.41;100.00;97768.80;107918;1253;60354;-78
2023/01/13 09:07:58;;;;;;;45.70;30.90;;;;;;;5.47;100.00;97763.33;107565;1254;60931;-77
2023/01/13 09:10:25;;;;;;;50.70;31.20;;;;;;;5.68;100.00;97770.58;107106;1254;59828;-80
2023/01/13 09:15:37;;;;;;;68.40;43.80;;;;;;;6.08;100.00;97769.35;107976;1254;59672;-77
2023/01/13 09:18:04;;;;;;;109.50;58.30;;;;;;;6.23;100.00;97768.13;107643;1252;60025;-78
2023/01/13 09:20:30;;;;;;;122.90;66.40;;;;;;;6.35;100.00;97764.98;107538;1254;73360;-80
2023/01/13 09:22:57;;;;;;;19.80;10.70;;;;;;;6.47;100.00;97765.40;106791;1254;70794;-79
2023/01/13 09:25:23;;;;;;;27.80;14.70;;;;;;;6.70;100.00;97758.95;107051;1254;59777;-80
2023/01/13 09:27:50;;;;;;;43.10;25.00;;;;;;;7.04;100.00;97753.42;109408;1253;59071;-80
2023/01/13 09:30:16;;;;;;;37.20;21.70;;;;;;;7.28;100.00;97754.80;109421;1253;58998;-80
2023/01/13 09:32:44;;;;;;;39.00;20.00;;;;;;;7.42;100.00;97751.39;109396;1253;59452;-78
2023/01/13 09:35:10;;;;;;;32.60;17.50;;;;;;;7.58;100.00;97747.83;109386;1252;71390;-76
2023/01/13 09:37:38;;;;;;;22.30;11.20;;;;;;;7.66;100.00;97746.97;108229;1252;71413;-77
2023/01/13 09:40:14;;;;;;;10.90;5.80;;;;;;;7.78;100.00;97737.39;108095;1253;59899;-75
2023/01/13 09:45:59;;;;;;;5.30;3.30;;;;;;;8.24;100.00;97741.61;108726;1252;74525;-77
2023/01/13 09:48:27;;;;;;;13.20;6.40;;;;;;;8.41;99.88;97734.11;109333;1253;69937;-75
2023/01/13 09:51:15;;;;;;;9.40;3.80;;;;;;;8.52;100.00;97730.81;109259;1254;72732;-75
2023/01/13 09:53:46;;;;;;;13.10;4.20;;;;;;;8.63;100.00;97726.90;109274;1253;59370;-77
2023/01/13 09:56:12;;;;;;;5.80;3.10;;;;;;;8.69;97.25;97724.02;109365;1254;59381;-75
2023/01/13 09:58:46;;;;;;;5.70;3.30;;;;;;;8.78;94.57;97733.39;109246;1254;74299;-77
2023/01/13 10:01:31;;;;;;;30.00;5.00;;;;;;;8.87;93.30;97733.46;107093;1254;71047;-77
2023/01/13 10:04:03;;;;;;;29.10;5.00;;;;;;;8.95;94.71;97734.84;107312;1254;71553;-75
2023/01/13 10:06:33;;;;;;;11.20;6.30;;;;;;;8.97;91.70;97733.59;107708;1254;60974;-75
2023/01/13 10:09:01;;;;;;;9.60;4.80;;;;;;;9.04;90.78;97735.73;107939;1253;60200;-75
2023/01/13 10:14:33;;;;;;;12.90;7.20;;;;;;;9.17;90.29;97733.67;106841;1253;69784;-78
2023/01/13 10:17:04;;;;;;;13.40;5.50;;;;;;;9.25;93.08;97730.83;107470;1253;72574;-78
2023/01/13 10:19:37;;;;;;;9.30;2.80;;;;;;;9.27;87.86;97720.87;107702;1253;61659;-76
2023/01/13 10:22:40;;;;;;;8.20;3.50;;;;;;;9.36;89.08;97724.98;106771;1253;61312;-76
2023/01/13 10:25:10;;;;;;;6.30;2.80;;;;;;;9.39;83.68;97726.22;107311;1253;74831;-78
2023/01/13 10:27:40;;;;;;;3.60;1.60;;;;;;;9.48;84.35;97719.55;107673;1254;71020;-78
2023/01/13 10:30:11;;;;;;;4.20;2.70;;;;;;;9.63;87.45;97719.41;107507;1254;72402;-78
2023/01/13 10:32:37;;;;;;;4.70;2.50;;;;;;;9.71;87.90;97720.72;106919;1254;61291;-78
2023/01/13 10:35:04;;;;;;;3.80;2.00;;;;;;;9.70;85.31;97718.67;107011;1254;61942;-76
2023/01/13 10:37:31;;;;;;;9.30;3.80;;;;;;;9.74;88.69;97710.21;107149;1254;73541;-76
2023/01/13 10:40:00;;;;;;;4.30;2.60;;;;;;;9.77;90.07;97699.80;107370;1253;71527;-78
2023/01/13 10:42:26;;;;;;;3.10;1.90;;;;;;;9.76;90.11;97694.77;106655;1254;72481;-76
2023/01/13 10:44:54;;;;;;;5.90;3.20;;;;;;;9.75;90.32;97691.96;107095;1254;61939;-78
2023/01/13 10:47:25;;;;;;;34.20;6.30;;;;;;;9.73;90.86;97689.58;107510;1252;60875;-76
2023/01/13 10:50:09;;;;;;;9.00;2.80;;;;;;;9.73;90.34;97685.20;107556;1254;73426;-77
2023/01/13 10:52:42;;;;;;;10.50;3.50;;;;;;;9.72;89.98;97678.92;106758;1253;71034;-78
2023/01/13 10:55:24;;;;;;;7.90;2.70;;;;;;;9.73;90.12;97676.21;106928;1254;71461;-78
2023/01/13 10:57:50;;;;;;;13.80;3.10;;;;;;;9.75;86.71;97675.63;107979;1253;61167;-75
2023/01/13 11:00:28;;;;;;;2.70;1.50;;;;;;;9.76;86.42;97674.16;107855;1253;61365;-78
2023/01/13 11:03:08;;;;;;;1.60;1.10;;;;;;;9.75;86.84;97670.59;107838;1254;73119;-76
2023/01/13 11:05:34;;;;;;;8.00;2.10;;;;;;;9.75;86.88;97667.89;107711;1254;71082;-75
2023/01/13 11:08:01;;;;;;;4.90;2.40;;;;;;;9.75;86.13;97669.84;106769;1254;61359;-78
2023/01/13 11:10:30;;;;;;;3.50;1.50;;;;;;;9.74;85.51;97669.95;107141;1253;60225;-78
2023/01/13 11:13:17;;;;;;;6.20;2.60;;;;;;;9.74;84.47;97666.80;107107;1251;61355;-76
2023/01/13 11:16:08;;;;;;;6.90;2.60;;;;;;;9.74;85.14;97665.34;108178;1253;74569;-76
2023/01/13 11:19:00;;;;;;;6.40;2.30;;;;;;;9.74;85.81;97657.88;107785;1252;69978;-76
2023/01/13 11:21:48;;;;;;;6.20;2.50;;;;;;;9.74;84.30;97655.45;107244;1253;72519;-76
2023/01/13 11:24:38;;;;;;;4.70;2.20;;;;;;;9.74;84.28;97656.23;107115;1253;61768;-76
2023/01/13 11:27:12;;;;;;;20.60;3.90;;;;;;;9.75;84.45;97655.27;107202;1254;61077;-78
2023/01/13 11:30:00;;;;;;;5.30;2.30;;;;;;;9.76;85.77;97656.18;107756;1253;73980;-78
2023/01/13 11:32:30;;;;;;;4.80;1.80;;;;;;;9.79;85.66;97652.09;106900;1254;69929;-76
2023/01/13 11:34:59;;;;;;;4.30;1.80;;;;;;;9.77;84.68;97650.05;106982;1253;72726;-78
2023/01/13 11:37:28;;;;;;;3.80;2.10;;;;;;;9.80;84.21;97647.11;107468;1253;61287;-76
2023/01/13 11:40:04;;;;;;;4.70;2.60;;;;;;;9.79;83.80;97650.95;107873;1252;60895;-78
2023/01/13 11:42:40;;;;;;;3.70;2.20;;;;;;;9.80;83.93;97645.31;107080;1254;74570;-76
2023/01/13 11:45:29;;;;;;;4.50;2.40;;;;;;;9.83;83.48;97641.35;107384;1254;70114;-76
2023/01/13 11:47:57;;;;;;;7.50;2.60;;;;;;;9.85;84.45;97639.00;108017;1254;72693;-76
2023/01/13 11:50:33;;;;;;;8.40;3.20;;;;;;;9.86;84.52;97642.56;107536;1254;59895;-75
2023/01/13 11:53:16;;;;;;;5.20;2.60;;;;;;;9.87;84.24;97645.15;107347;1251;60423;-78
2023/01/13 11:56:12;;;;;;;5.80;2.70;;;;;;;9.88;83.59;97652.02;107601;1253;73437;-78
2023/01/13 11:58:41;;;;;;;4.80;2.00;;;;;;;9.91;83.67;97655.95;107477;1252;69915;-78
2023/01/13 12:01:14;;;;;;;5.00;1.80;;;;;;;9.96;82.75;97650.76;107535;1254;71389;-78
2023/01/13 12:03:42;;;;;;;4.90;2.70;;;;;;;9.96;82.22;97647.45;106879;1254;61032;-76
2023/01/13 12:06:30;;;;;;;6.10;3.30;;;;;;;9.95;81.87;97643.35;107669;1253;59850;-76
2023/01/13 12:09:10;;;;;;;9.90;4.40;;;;;;;9.98;83.07;97637.04;108235;1254;72883;-76
2023/01/13 12:14:45;;;;;;;;;;;;;;;10.00;84.06;97632.97;107026;1253;72605;-78
2023/01/13 12:17:43;;;;;;;6.90;3.50;;;;;;;10.01;82.32;97636.15;108746;1253;61231;-78